createdAt,value
2023-02-27T00:02:15.950Z,94.18
2023-02-27T00:04:48.232Z,93.84
2023-02-27T00:07:18.214Z,94.28
2023-02-27T00:09:47.636Z,94.91
2023-02-27T00:12:17.595Z,95.38
2023-02-27T00:14:47.372Z,94.33
2023-02-27T00:17:17.815Z,93.91
2023-02-27T00:19:48.679Z,94.55
2023-02-27T00:22:18.133Z,94.38
2023-02-27T00:24:48.789Z,93.97
2023-02-27T00:27:18.723Z,94.61
2023-02-27T00:29:49.152Z,94.71
2023-02-27T00:32:19.228Z,94.94
2023-02-27T00:34:50.498Z,95.90
2023-02-27T00:37:21.158Z,95.19
2023-02-27T00:39:50.350Z,94.66
2023-02-27T00:42:19.672Z,94.34
2023-02-27T00:44:49.744Z,94.79
2023-02-27T00:47:18.188Z,94.23
2023-02-27T00:49:49.012Z,94.23
2023-02-27T00:52:18.919Z,94.23
2023-02-27T00:54:48.771Z,94.08
2023-02-27T00:57:18.169Z,93.71
2023-02-27T00:59:49.139Z,94.10
2023-02-27T01:02:18.618Z,93.26
2023-02-27T01:04:49.151Z,93.37
2023-02-27T01:07:19.177Z,93.11
2023-02-27T01:09:48.079Z,93.11
2023-02-27T01:12:17.707Z,93.22
2023-02-27T01:14:47.964Z,93.69
2023-02-27T01:17:17.383Z,93.27
2023-02-27T01:19:48.114Z,93.12
2023-02-27T01:22:17.537Z,92.48
2023-02-27T01:24:47.165Z,92.62
2023-02-27T01:27:16.556Z,93.31
2023-02-27T01:29:47.030Z,93.19
2023-02-27T01:32:16.575Z,93.50
2023-02-27T01:34:46.485Z,93.24
2023-02-27T01:37:17.355Z,93.66
2023-02-27T01:39:47.202Z,93.46
2023-02-27T01:42:23.588Z,93.10
2023-02-27T01:45:34.471Z,93.51
2023-02-27T01:48:11.774Z,94.00
2023-02-27T01:50:47.724Z,93.96
2023-02-27T01:53:20.796Z,93.87
2023-02-27T01:55:52.103Z,94.73
2023-02-27T01:58:21.650Z,95.00
2023-02-27T02:00:51.449Z,95.75
2023-02-27T02:03:31.451Z,94.60
2023-02-27T02:06:07.242Z,94.34
2023-02-27T02:08:44.121Z,95.85
2023-02-27T02:11:16.870Z,94.64
2023-02-27T02:13:47.080Z,94.15
2023-02-27T02:16:50.163Z,94.48
2023-02-27T02:20:08.067Z,94.35
2023-02-27T02:23:30.378Z,93.08
2023-02-27T02:26:51.061Z,93.24
2023-02-27T02:30:17.146Z,93.57
2023-02-27T02:33:48.227Z,93.66
2023-02-27T02:37:15.328Z,94.16
2023-02-27T02:40:14.239Z,93.52
2023-02-27T02:42:55.367Z,93.27
2023-02-27T02:45:33.008Z,93.64
2023-02-27T02:48:14.506Z,93.58
2023-02-27T02:50:51.491Z,94.18
2023-02-27T02:53:36.885Z,94.35
2023-02-27T02:56:20.370Z,94.49
2023-02-27T02:59:00.234Z,94.03
2023-02-27T03:01:37.840Z,94.19
2023-02-27T03:04:14.812Z,94.36
2023-02-27T03:06:51.355Z,94.54
2023-02-27T03:09:27.944Z,94.13
2023-02-27T03:12:01.403Z,94.21
2023-02-27T03:14:39.985Z,94.44
2023-02-27T03:17:19.483Z,93.97
2023-02-27T03:19:57.999Z,94.71
2023-02-27T03:22:33.461Z,94.58
2023-02-27T03:25:08.301Z,94.70
2023-02-27T03:27:45.334Z,95.50
2023-02-27T03:30:25.409Z,94.72
2023-02-27T03:33:03.255Z,96.24
2023-02-27T03:35:47.665Z,96.43
2023-02-27T03:38:27.928Z,96.65
2023-02-27T03:41:12.523Z,96.20
2023-02-27T03:43:55.007Z,96.42
2023-02-27T03:46:28.992Z,95.73
2023-02-27T03:48:57.961Z,96.02
2023-02-27T03:51:29.467Z,95.47
2023-02-27T03:54:06.686Z,95.67
2023-02-27T03:56:43.527Z,96.22
2023-02-27T03:59:15.720Z,96.40
2023-02-27T04:01:45.479Z,96.43
2023-02-27T04:04:17.613Z,95.99
2023-02-27T04:07:12.418Z,95.40
2023-02-27T04:10:18.146Z,95.53
2023-02-27T04:13:22.082Z,94.70
2023-02-27T04:16:24.574Z,94.05
2023-02-27T04:19:14.105Z,94.07
2023-02-27T04:22:02.585Z,93.87
2023-02-27T04:24:44.117Z,94.64
2023-02-27T04:27:33.062Z,94.35
2023-02-27T04:30:17.836Z,95.11
2023-02-27T04:32:58.339Z,94.02
2023-02-27T04:35:36.108Z,94.38
2023-02-27T04:38:17.469Z,94.59
2023-02-27T04:40:52.366Z,95.78
2023-02-27T04:43:23.295Z,95.78
2023-02-27T04:45:56.328Z,95.88
2023-02-27T04:48:33.698Z,96.00
2023-02-27T04:51:11.616Z,96.46
2023-02-27T04:53:50.313Z,96.61
2023-02-27T04:56:25.905Z,96.19
2023-02-27T04:59:00.163Z,96.07
2023-02-27T05:01:40.072Z,95.98
2023-02-27T05:04:17.584Z,95.96
2023-02-27T05:06:51.110Z,95.65
2023-02-27T05:09:30.461Z,95.70
2023-02-27T05:12:05.167Z,95.62
2023-02-27T05:14:39.663Z,96.66
2023-02-27T05:17:16.897Z,97.09
2023-02-27T05:19:49.652Z,97.15
2023-02-27T05:22:32.101Z,97.74
2023-02-27T05:25:13.794Z,98.08
2023-02-27T05:27:52.950Z,98.17
2023-02-27T05:30:29.929Z,99.30
2023-02-27T05:33:07.440Z,99.79
2023-02-27T05:35:48.170Z,100.00
2023-02-27T05:38:23.703Z,100.00
2023-02-27T05:41:00.368Z,99.95
2023-02-27T05:43:35.372Z,100.00
2023-02-27T05:46:11.601Z,100.00
2023-02-27T05:48:49.381Z,100.00
2023-02-27T05:51:22.843Z,100.00
2023-02-27T05:54:01.972Z,100.00
2023-02-27T05:56:35.204Z,100.00
2023-02-27T05:59:11.855Z,100.00
2023-02-27T06:01:42.022Z,100.00
2023-02-27T06:04:12.149Z,100.00
2023-02-27T06:06:43.753Z,100.00
2023-02-27T06:09:12.368Z,100.00
2023-02-27T06:11:42.338Z,100.00
2023-02-27T06:14:12.413Z,100.00
2023-02-27T06:16:42.393Z,100.00
2023-02-27T06:19:13.455Z,100.00
2023-02-27T06:21:44.750Z,100.00
2023-02-27T06:24:14.734Z,100.00
2023-02-27T06:26:45.767Z,100.00
2023-02-27T06:29:15.549Z,100.00
2023-02-27T06:31:45.471Z,100.00
2023-02-27T06:34:14.404Z,100.00
2023-02-27T06:36:45.438Z,100.00
2023-02-27T06:39:15.956Z,100.00
2023-02-27T06:41:45.483Z,100.00
2023-02-27T06:44:15.291Z,100.00
2023-02-27T06:46:44.205Z,100.00
2023-02-27T06:49:14.614Z,100.00
2023-02-27T06:51:46.061Z,100.00
2023-02-27T06:54:14.893Z,100.00
2023-02-27T06:56:45.016Z,100.00
2023-02-27T06:59:16.149Z,100.00
2023-02-27T07:01:46.226Z,100.00
2023-02-27T07:04:17.271Z,100.00
2023-02-27T07:07:34.985Z,100.00
2023-02-27T07:09:38.959Z,100.00
2023-02-27T07:12:09.340Z,100.00
2023-02-27T07:14:38.982Z,100.00
2023-02-27T07:17:08.605Z,100.00
2023-02-27T07:19:38.705Z,100.00
2023-02-27T07:22:10.998Z,100.00
2023-02-27T07:24:39.340Z,100.00
2023-02-27T07:27:08.756Z,100.00
2023-02-27T07:29:38.449Z,100.00
2023-02-27T07:32:07.334Z,100.00
2023-02-27T07:34:36.965Z,100.00
2023-02-27T07:37:06.937Z,100.00
2023-02-27T07:39:37.717Z,100.00
2023-02-27T07:42:06.956Z,100.00
2023-02-27T07:44:37.511Z,99.77
2023-02-27T07:47:08.095Z,99.12
2023-02-27T07:49:38.120Z,98.69
2023-02-27T07:52:08.380Z,98.69
2023-02-27T07:54:38.380Z,96.41
2023-02-27T07:57:08.085Z,96.43
2023-02-27T07:59:38.085Z,96.89
2023-02-27T08:02:08.210Z,97.08
2023-02-27T08:04:38.332Z,96.15
2023-02-27T08:07:07.904Z,96.13
2023-02-27T08:09:38.744Z,96.05
2023-02-27T08:12:07.707Z,95.16
2023-02-27T08:14:36.680Z,94.38
2023-02-27T08:17:07.118Z,94.24
2023-02-27T08:19:37.264Z,95.13
2023-02-27T08:22:07.259Z,95.45
2023-02-27T08:24:38.608Z,94.58
2023-02-27T08:27:07.165Z,93.23
2023-02-27T08:29:36.266Z,93.49
2023-02-27T08:32:06.775Z,93.39
2023-02-27T08:34:36.235Z,93.55
2023-02-27T08:37:05.262Z,93.06
2023-02-27T08:39:34.244Z,91.98
2023-02-27T08:42:04.067Z,91.43
2023-02-27T08:44:34.104Z,91.81
2023-02-27T08:47:03.952Z,91.74
2023-02-27T08:49:33.412Z,91.30
2023-02-27T08:52:04.770Z,90.34
2023-02-27T08:54:33.940Z,90.32
2023-02-27T08:57:05.039Z,90.57
2023-02-27T08:59:33.943Z,90.70
2023-02-27T09:02:04.542Z,89.73
2023-02-27T09:04:32.964Z,90.36
2023-02-27T09:07:03.647Z,89.34
2023-02-27T09:09:33.169Z,89.16
2023-02-27T09:12:04.331Z,89.72
2023-02-27T09:14:34.835Z,89.24
2023-02-27T09:17:04.454Z,88.24
2023-02-27T09:19:33.380Z,88.05
2023-02-27T09:22:02.881Z,88.32
2023-02-27T09:24:33.468Z,89.08
2023-02-27T09:27:04.564Z,88.17
2023-02-27T09:29:35.060Z,87.77
2023-02-27T09:32:05.360Z,86.95
2023-02-27T09:34:35.433Z,87.04
2023-02-27T09:37:05.408Z,84.97
2023-02-27T09:39:36.875Z,85.10
2023-02-27T09:42:16.167Z,84.91
2023-02-27T09:44:49.475Z,85.03
2023-02-27T09:47:26.436Z,86.10
2023-02-27T09:50:03.533Z,85.55
2023-02-27T09:52:37.611Z,86.27
2023-02-27T09:55:13.141Z,85.98
2023-02-27T09:57:56.438Z,85.36
2023-02-27T10:00:46.371Z,83.18
2023-02-27T10:03:45.021Z,82.34
2023-02-27T10:06:27.848Z,82.76
2023-02-27T10:09:18.001Z,83.05
2023-02-27T10:12:07.499Z,82.31
2023-02-27T10:14:45.817Z,81.82
2023-02-27T10:17:23.106Z,81.02
2023-02-27T10:19:56.013Z,81.99
2023-02-27T10:22:36.868Z,81.92
2023-02-27T10:25:29.918Z,81.21
2023-02-27T10:28:13.695Z,80.58
2023-02-27T10:30:50.227Z,80.67
2023-02-27T10:33:31.040Z,79.56
2023-02-27T10:36:01.999Z,78.27
2023-02-27T10:39:02.395Z,78.13
2023-02-27T10:41:33.014Z,78.76
2023-02-27T10:44:02.836Z,79.26
2023-02-27T10:46:38.324Z,79.01
2023-02-27T10:49:19.229Z,79.03
2023-02-27T10:52:05.861Z,79.08
2023-02-27T10:54:37.835Z,76.71
2023-02-27T10:57:27.534Z,73.99
2023-02-27T11:00:00.764Z,73.84
2023-02-27T11:02:38.557Z,74.40
2023-02-27T11:05:21.761Z,73.97
2023-02-27T11:07:52.155Z,73.99
2023-02-27T11:10:27.728Z,74.80
2023-02-27T11:13:04.407Z,75.21
2023-02-27T11:15:39.308Z,75.00
2023-02-27T11:18:29.799Z,73.95
2023-02-27T11:21:23.362Z,74.43
2023-02-27T11:23:58.932Z,74.89
2023-02-27T11:26:37.363Z,76.15
2023-02-27T11:29:19.039Z,76.39
2023-02-27T11:31:55.009Z,77.16
2023-02-27T11:34:29.631Z,77.74
2023-02-27T11:37:02.935Z,78.13
2023-02-27T11:39:38.768Z,78.37
2023-02-27T11:42:18.708Z,78.29
2023-02-27T11:44:59.988Z,78.16
2023-02-27T11:47:35.786Z,77.98
2023-02-27T11:50:59.417Z,78.54
2023-02-27T11:54:09.597Z,79.07
2023-02-27T11:56:42.648Z,79.20
2023-02-27T11:59:29.441Z,79.92
2023-02-27T12:02:08.086Z,79.58
2023-02-27T12:04:50.383Z,79.53
2023-02-27T12:07:27.489Z,80.13
2023-02-27T12:10:06.610Z,79.46
2023-02-27T12:12:47.912Z,80.22
2023-02-27T12:15:29.187Z,80.45
2023-02-27T12:18:14.647Z,79.52
2023-02-27T12:20:55.602Z,79.40
2023-02-27T12:23:37.545Z,79.06
2023-02-27T12:26:14.584Z,78.15
2023-02-27T12:28:56.727Z,79.05
2023-02-27T12:31:51.765Z,79.30
2023-02-27T12:34:29.737Z,78.66
2023-02-27T12:37:11.192Z,78.73
2023-02-27T12:39:43.312Z,79.09
2023-02-27T12:43:24.569Z,79.73
2023-02-27T12:46:30.814Z,79.73
2023-02-27T12:49:21.708Z,78.57
2023-02-27T12:52:04.638Z,77.88
2023-02-27T12:54:52.327Z,76.49
2023-02-27T12:57:37.553Z,76.71
2023-02-27T13:00:18.498Z,77.07
2023-02-27T13:03:16.902Z,75.96
2023-02-27T13:05:58.228Z,76.43
2023-02-27T13:08:59.087Z,74.10
2023-02-27T13:11:50.789Z,73.31
2023-02-27T13:14:41.178Z,73.24
2023-02-27T13:17:23.891Z,73.49
2023-02-27T13:19:59.322Z,73.46
2023-02-27T13:22:45.165Z,74.98
2023-02-27T13:25:18.796Z,74.95
2023-02-27T13:27:55.081Z,74.78
2023-02-27T13:30:33.932Z,75.61
2023-02-27T13:33:22.800Z,76.34
2023-02-27T13:36:05.452Z,75.00
2023-02-27T13:38:44.628Z,74.49
2023-02-27T13:41:38.446Z,74.20
2023-02-27T13:44:47.777Z,72.23
2023-02-27T13:47:49.332Z,73.62
2023-02-27T13:50:54.055Z,73.98
2023-02-27T13:53:25.223Z,74.51
2023-02-27T13:56:19.688Z,73.79
2023-02-27T13:58:49.038Z,73.45
2023-02-27T14:01:28.643Z,74.35
2023-02-27T14:04:03.485Z,74.33
2023-02-27T14:06:34.115Z,75.35
2023-02-27T14:09:14.441Z,75.06
2023-02-27T14:11:56.472Z,73.88
2023-02-27T14:14:46.936Z,74.19
2023-02-27T14:17:45.700Z,73.63
2023-02-27T14:20:50.997Z,74.18
2023-02-27T14:23:27.969Z,74.28
2023-02-27T14:26:02.934Z,73.96
2023-02-27T14:28:36.797Z,71.89
2023-02-27T14:31:15.179Z,68.27
2023-02-27T14:33:50.506Z,66.79
2023-02-27T14:36:22.978Z,64.82
2023-02-27T14:38:57.143Z,63.35
2023-02-27T14:41:49.259Z,60.99
2023-02-27T14:44:25.498Z,61.89
2023-02-27T14:46:56.782Z,62.06
2023-02-27T14:49:31.295Z,61.91
2023-02-27T14:52:13.480Z,62.15
2023-02-27T14:54:45.129Z,61.62
2023-02-27T14:57:20.726Z,60.50
2023-02-27T14:59:53.213Z,60.09
2023-02-27T15:02:26.555Z,58.08
2023-02-27T15:05:16.435Z,59.36
2023-02-27T15:07:49.073Z,58.25
2023-02-27T15:10:25.097Z,59.38
2023-02-27T15:12:54.249Z,58.84
2023-02-27T15:15:24.062Z,58.45
2023-02-27T15:17:57.283Z,58.64
2023-02-27T15:20:33.428Z,57.95
2023-02-27T15:23:22.440Z,59.22
2023-02-27T15:25:56.926Z,59.27
2023-02-27T15:28:32.161Z,58.60
2023-02-27T15:31:02.024Z,57.31
2023-02-27T15:33:35.518Z,56.84
2023-02-27T15:36:10.198Z,56.03
2023-02-27T15:38:39.519Z,55.15
2023-02-27T15:41:13.713Z,56.05
2023-02-27T15:43:43.780Z,56.61
2023-02-27T15:46:13.046Z,57.66
2023-02-27T15:48:42.652Z,57.29
2023-02-27T15:51:14.303Z,58.34
2023-02-27T15:53:55.163Z,57.94
2023-02-27T15:56:29.929Z,57.50
2023-02-27T15:59:01.711Z,59.02
2023-02-27T16:01:35.128Z,58.53
2023-02-27T16:04:08.703Z,56.54
2023-02-27T16:06:49.042Z,57.18
2023-02-27T16:09:26.459Z,56.58
2023-02-27T16:12:28.632Z,55.68
2023-02-27T16:15:30.054Z,55.59
2023-02-27T16:18:07.263Z,55.55
2023-02-27T16:20:44.463Z,55.98
2023-02-27T16:23:28.110Z,55.86
2023-02-27T16:26:13.256Z,55.68
2023-02-27T16:28:52.756Z,56.12
2023-02-27T16:31:29.460Z,56.67
2023-02-27T16:34:02.170Z,56.60
2023-02-27T16:36:35.316Z,55.79
2023-02-27T16:39:09.061Z,55.60
2023-02-27T16:41:37.979Z,55.20
2023-02-27T16:44:07.847Z,55.51
2023-02-27T16:46:37.668Z,54.25
2023-02-27T16:49:19.144Z,53.75
2023-02-27T16:51:48.552Z,53.98
2023-02-27T16:54:21.161Z,54.83
2023-02-27T16:56:52.394Z,54.65
2023-02-27T16:59:34.186Z,54.49
2023-02-27T17:02:07.543Z,54.57
2023-02-27T17:04:36.849Z,53.86
2023-02-27T17:07:06.963Z,54.46
2023-02-27T17:09:38.849Z,54.89
2023-02-27T17:12:08.710Z,54.88
2023-02-27T17:14:38.178Z,55.26
2023-02-27T17:17:07.883Z,54.71
2023-02-27T17:19:37.913Z,54.91
2023-02-27T17:22:07.556Z,54.51
2023-02-27T17:24:39.159Z,54.95
2023-02-27T17:27:09.451Z,55.00
2023-02-27T17:29:39.896Z,55.46
2023-02-27T17:32:09.550Z,55.48
2023-02-27T17:34:38.908Z,55.34
2023-02-27T17:37:07.822Z,55.50
2023-02-27T17:39:39.707Z,56.07
2023-02-27T17:42:12.392Z,56.52
2023-02-27T17:44:44.951Z,56.81
2023-02-27T17:47:14.353Z,57.32
2023-02-27T17:49:43.857Z,57.26
2023-02-27T17:52:13.404Z,56.85
2023-02-27T17:54:45.543Z,56.77
2023-02-27T17:57:15.600Z,57.26
2023-02-27T17:59:45.731Z,57.05
2023-02-27T18:02:16.292Z,57.86
2023-02-27T18:04:45.092Z,57.89
2023-02-27T18:07:15.125Z,58.48
2023-02-27T18:09:47.288Z,58.66
2023-02-27T18:12:16.773Z,58.56
2023-02-27T18:14:45.860Z,58.45
2023-02-27T18:17:14.290Z,58.67
2023-02-27T18:19:44.630Z,59.12
2023-02-27T18:22:15.838Z,58.93
2023-02-27T18:24:46.061Z,59.36
2023-02-27T18:27:16.135Z,59.28
2023-02-27T18:29:45.704Z,59.87
2023-02-27T18:32:15.822Z,59.66
2023-02-27T18:34:46.399Z,58.80
2023-02-27T18:37:15.868Z,58.39
2023-02-27T18:39:47.107Z,58.44
2023-02-27T18:42:16.103Z,58.97
2023-02-27T18:44:45.579Z,58.43
2023-02-27T18:47:14.494Z,58.78
2023-02-27T18:49:44.238Z,58.56
2023-02-27T18:52:14.363Z,58.63
2023-02-27T18:54:45.412Z,59.06
2023-02-27T18:57:15.109Z,58.82
2023-02-27T18:59:47.052Z,58.33
2023-02-27T19:02:19.671Z,58.13
2023-02-27T19:04:50.005Z,58.41
2023-02-27T19:07:22.371Z,58.06
2023-02-27T19:09:52.805Z,58.40
2023-02-27T19:12:21.858Z,58.41
2023-02-27T19:14:52.300Z,58.26
2023-02-27T19:17:20.759Z,58.36
2023-02-27T19:19:51.347Z,59.01
2023-02-27T19:22:21.385Z,59.00
2023-02-27T19:24:53.510Z,59.11
2023-02-27T19:27:22.877Z,59.93
2023-02-27T19:29:52.185Z,59.41
2023-02-27T19:32:21.804Z,59.71
2023-02-27T19:34:51.888Z,59.81
2023-02-27T19:37:22.063Z,60.21
2023-02-27T19:39:53.496Z,59.81
2023-02-27T19:42:23.523Z,59.21
2023-02-27T19:44:53.282Z,57.81
2023-02-27T19:47:23.392Z,59.18
2023-02-27T19:49:53.856Z,59.56
2023-02-27T19:52:22.947Z,58.99
2023-02-27T19:54:54.970Z,58.80
2023-02-27T19:57:23.800Z,59.45
2023-02-27T19:59:53.147Z,59.65
2023-02-27T20:02:22.654Z,59.73
2023-02-27T20:04:52.127Z,60.01
2023-02-27T20:07:22.534Z,60.47
2023-02-27T20:09:53.823Z,60.89
2023-02-27T20:12:23.853Z,61.52
2023-02-27T20:14:53.357Z,61.88
2023-02-27T20:17:22.204Z,61.89
2023-02-27T20:19:52.418Z,63.11
2023-02-27T20:22:22.008Z,63.73
2023-02-27T20:24:52.281Z,64.54
2023-02-27T20:27:21.761Z,66.09
2023-02-27T20:29:55.422Z,66.20
2023-02-27T20:32:26.617Z,67.20
2023-02-27T20:34:56.864Z,66.55
2023-02-27T20:37:28.587Z,67.65
2023-02-27T20:40:00.872Z,67.93
2023-02-27T20:42:30.772Z,69.11
2023-02-27T20:45:00.824Z,69.47
2023-02-27T20:47:30.913Z,70.74
2023-02-27T20:50:00.434Z,71.32
2023-02-27T20:52:29.927Z,72.27
2023-02-27T20:55:02.064Z,71.69
2023-02-27T20:57:31.029Z,71.48
2023-02-27T21:00:00.304Z,71.84
2023-02-27T21:02:30.020Z,72.29
2023-02-27T21:04:59.628Z,72.27
2023-02-27T21:07:29.760Z,72.61
2023-02-27T21:10:00.702Z,73.88
2023-02-27T21:12:29.580Z,74.29
2023-02-27T21:14:59.851Z,74.83
2023-02-27T21:17:29.959Z,74.27
2023-02-27T21:19:59.425Z,74.67
2023-02-27T21:22:28.460Z,75.03
2023-02-27T21:24:58.333Z,75.15
2023-02-27T21:27:29.757Z,75.80
2023-02-27T21:30:00.296Z,75.68
2023-02-27T21:32:30.151Z,75.56
2023-02-27T21:35:00.612Z,75.64
2023-02-27T21:37:29.026Z,75.80
2023-02-27T21:39:57.867Z,76.17
2023-02-27T21:42:28.565Z,74.84
2023-02-27T21:44:57.026Z,75.78
2023-02-27T21:47:27.032Z,76.17
2023-02-27T21:49:55.391Z,76.28
2023-02-27T21:52:23.855Z,76.07
2023-02-27T21:54:55.897Z,75.96
2023-02-27T21:57:24.877Z,75.62
2023-02-27T21:59:54.612Z,75.44
2023-02-27T22:02:24.827Z,75.34
2023-02-27T22:04:54.740Z,76.27
2023-02-27T22:07:24.772Z,76.87
2023-02-27T22:09:53.593Z,76.47
2023-02-27T22:12:23.074Z,76.81
2023-02-27T22:14:53.143Z,77.58
2023-02-27T22:17:23.971Z,77.30
2023-02-27T22:19:54.164Z,77.79
2023-02-27T22:22:23.587Z,78.17
2023-02-27T22:24:53.575Z,78.57
2023-02-27T22:27:22.598Z,78.23
2023-02-27T22:29:52.173Z,78.72
2023-02-27T22:32:23.085Z,78.81
2023-02-27T22:34:52.494Z,78.14
2023-02-27T22:37:23.481Z,78.22
2023-02-27T22:39:53.344Z,78.28
2023-02-27T22:42:23.137Z,78.00
2023-02-27T22:44:52.936Z,78.19
2023-02-27T22:47:25.057Z,78.69
2023-02-27T22:49:55.722Z,79.97
2023-02-27T22:52:26.216Z,79.62
2023-02-27T22:54:56.061Z,79.16
2023-02-27T22:57:27.175Z,79.08
2023-02-27T22:59:58.048Z,81.38
2023-02-27T23:02:33.992Z,81.64
2023-02-27T23:05:04.629Z,81.39
2023-02-27T23:07:35.867Z,82.31
2023-02-27T23:10:10.442Z,82.43
2023-02-27T23:12:39.524Z,83.70
2023-02-27T23:15:12.134Z,85.09
2023-02-27T23:17:52.898Z,85.34
2023-02-27T23:20:27.455Z,85.96
2023-02-27T23:22:57.440Z,86.31
2023-02-27T23:25:27.514Z,87.38
2023-02-27T23:27:57.572Z,87.00
2023-02-27T23:30:27.281Z,88.08
2023-02-27T23:32:58.826Z,88.17
2023-02-27T23:35:30.442Z,88.18
2023-02-27T23:38:02.305Z,88.97
2023-02-27T23:40:31.827Z,88.27
2023-02-27T23:43:19.124Z,90.00
2023-02-27T23:45:48.776Z,91.59
2023-02-27T23:48:22.460Z,91.33
2023-02-27T23:50:52.326Z,91.65
2023-02-27T23:53:21.225Z,90.89
2023-02-27T23:55:50.809Z,91.25
2023-02-27T23:58:20.714Z,91.28
